Time;durP1;ratioP1;P1;durP2;ratioP2;P2;SDS_P1;SDS_P2;PMS_P1;PMS_P2;Temp;Humidity;BMP_temperature;BMP_pressure;BME280_temperature;BME280_humidity;BME280_pressure;Samples;Min_cycle;Max_cycle;Signal;HPM_P1;HPM_P2
2023/05/03 00:00:49;;;;;;;;;11.00;9.00;;;;;20.15;40.84;101989.59;4992747;28;45314;-40
2023/05/03 00:03:15;;;;;;;;;8.50;7.50;;;;;20.15;41.21;101992.22;4993994;28;45245;-41
2023/05/03 00:05:40;;;;;;;;;8.00;8.00;;;;;20.15;41.27;101986.97;4989402;28;55728;-38
2023/05/03 00:08:06;;;;;;;;;6.50;6.50;;;;;20.12;41.00;101981.81;4989627;28;45369;-42
2023/05/03 00:10:31;;;;;;;;;8.00;8.00;;;;;20.13;41.31;101980.91;4977564;28;45356;-38
2023/05/03 00:12:56;;;;;;;;;10.00;7.00;;;;;20.13;41.26;101973.00;4977390;28;60649;-40
2023/05/03 00:15:22;;;;;;;;;10.75;7.25;;;;;20.13;41.11;101969.50;4976911;28;48745;-39
2023/05/03 00:17:47;;;;;;;;;9.00;7.00;;;;;20.09;40.81;101963.47;4977229;28;45309;-39
2023/05/03 00:20:14;;;;;;;;;7.25;6.75;;;;;20.10;40.68;101959.09;4977641;28;45389;-40
2023/05/03 00:22:39;;;;;;;;;9.00;8.00;;;;;20.13;40.50;101974.75;4981252;28;45519;-38
2023/05/03 00:25:07;;;;;;;;;6.75;6.75;;;;;20.08;40.50;101973.16;4983304;28;46677;-38
2023/05/03 00:27:33;;;;;;;;;9.25;7.50;;;;;20.11;40.93;101972.19;4981010;28;45460;-38
2023/05/03 00:29:58;;;;;;;;;8.00;8.00;;;;;20.09;40.71;101979.28;4981312;28;46134;-40
2023/05/03 00:32:23;;;;;;;;;5.50;5.50;;;;;20.11;40.96;101984.50;4978593;28;45343;-39
2023/05/03 00:34:56;;;;;;;;;8.50;7.75;;;;;20.10;40.65;101978.38;4976826;28;45999;-39
2023/05/03 00:37:22;;;;;;;;;7.00;7.00;;;;;20.11;40.49;101981.88;4977510;28;45247;-41
2023/05/03 00:39:48;;;;;;;;;7.25;6.25;;;;;20.10;40.64;101990.69;4983296;28;45301;-37
2023/05/03 00:42:13;;;;;;;;;7.25;7.25;;;;;20.10;40.97;101981.00;4984672;28;45456;-39
2023/05/03 00:44:39;;;;;;;;;7.00;7.00;;;;;20.10;40.54;101978.38;4980942;28;46844;-38
2023/05/03 00:47:05;;;;;;;;;6.25;6.25;;;;;20.05;40.58;101973.25;4980303;28;45470;-40
2023/05/03 00:49:31;;;;;;;;;8.25;6.25;;;;;20.08;40.45;101974.91;4981212;28;45403;-37
2023/05/03 00:51:58;;;;;;;;;6.00;6.00;;;;;20.10;40.37;101974.88;4998905;28;45587;-39
2023/05/03 00:54:25;;;;;;;;;8.50;7.25;;;;;20.06;40.65;101964.47;4980376;28;46868;-39
2023/05/03 00:56:51;;;;;;;;;4.00;3.25;;;;;20.10;40.67;101961.72;4982204;28;45347;-38
2023/05/03 00:59:17;;;;;;;;;6.50;6.25;;;;;20.08;40.34;101962.63;4980245;28;45482;-39
2023/05/03 01:01:46;;;;;;;;;8.75;7.00;;;;;20.08;40.39;101962.63;4980220;28;45578;-39
2023/05/03 01:04:12;;;;;;;;;6.25;6.25;;;;;20.08;40.38;101959.13;4980829;28;46359;-37
2023/05/03 01:06:37;;;;;;;;;7.00;5.00;;;;;20.10;40.93;101959.94;4985122;28;45479;-39
2023/05/03 01:09:20;;;;;;;;;4.00;4.00;;;;;20.09;40.57;101960.84;4982752;28;45274;-40
2023/05/03 01:11:56;;;;;;;;;4.75;4.75;;;;;20.09;40.45;101963.47;4987355;28;45453;-44
2023/05/03 01:14:46;;;;;;;;;4.50;4.50;;;;;20.08;40.28;101957.38;4993396;28;46974;-40
2023/05/03 01:17:12;;;;;;;;;5.50;5.50;;;;;20.10;40.37;101964.34;4974694;28;45253;-41
2023/05/03 01:19:56;;;;;;;;;7.50;6.25;;;;;20.07;40.71;101960.03;4972229;28;45506;-40
2023/05/03 01:22:40;;;;;;;;;6.75;6.75;;;;;20.07;40.39;101955.66;4969343;28;45576;-35
2023/05/03 01:25:08;;;;;;;;;7.75;6.00;;;;;20.04;40.23;101950.50;4976138;28;46216;-38
2023/05/03 01:27:33;;;;;;;;;7.75;5.00;;;;;20.06;40.66;101959.19;4987568;28;45439;-37
2023/05/03 01:29:58;;;;;;;;;6.50;6.00;;;;;20.07;40.62;101971.44;4985948;28;45388;-38
2023/05/03 01:32:50;;;;;;;;;6.00;6.00;;;;;20.07;40.81;101962.66;4980438;28;45432;-35
2023/05/03 01:35:28;;;;;;;;;6.50;5.00;;;;;20.06;40.32;101966.25;4955410;28;45537;-35
2023/05/03 01:37:56;;;;;;;;;6.00;5.25;;;;;20.03;40.70;101964.56;5000456;28;52306;-37
2023/05/03 01:40:22;;;;;;;;;6.75;5.75;;;;;20.07;40.62;101967.94;4995039;28;44830;-37
2023/05/03 01:42:49;;;;;;;;;6.25;5.25;;;;;20.06;40.24;101967.09;4982047;28;45439;-37
2023/05/03 01:45:15;;;;;;;;;7.25;7.25;;;;;20.06;40.63;101972.34;4986865;28;46422;-38
2023/05/03 01:47:40;;;;;;;;;6.00;5.00;;;;;20.04;40.49;101971.53;4980144;28;45343;-39
2023/05/03 01:50:06;;;;;;;;;8.25;6.75;;;;;20.04;40.42;101970.69;4979832;28;45229;-37
2023/05/03 01:52:32;;;;;;;;;5.00;5.00;;;;;20.06;40.40;101976.78;4979855;28;45223;-40
2023/05/03 01:54:58;;;;;;;;;5.75;5.75;;;;;20.07;40.41;101975.84;4982355;28;46169;-40
2023/05/03 01:57:24;;;;;;;;;6.00;5.00;;;;;20.02;40.30;101968.09;4998649;28;45222;-40
2023/05/03 01:59:49;;;;;;;;;5.00;5.00;;;;;20.06;40.27;101984.66;4993130;28;45226;-39
2023/05/03 02:02:14;;;;;;;;;6.75;5.25;;;;;20.06;40.02;101980.25;4979367;28;45286;-38
2023/05/03 02:04:40;;;;;;;;;6.33;6.33;;;;;20.05;40.28;101978.53;4977866;28;68071;-38
2023/05/03 02:07:05;;;;;;;;;4.75;4.75;;;;;20.05;40.19;101983.78;4979052;28;45452;-37
2023/05/03 02:09:30;;;;;;;;;5.75;5.25;;;;;20.05;40.29;101982.94;4980785;28;45442;-38
2023/05/03 02:11:56;;;;;;;;;5.00;5.00;;;;;20.04;39.96;101982.06;4984222;28;48934;-40
2023/05/03 02:14:21;;;;;;;;;6.00;6.00;;;;;20.05;40.34;101977.69;4983137;28;46033;-37
2023/05/03 02:16:47;;;;;;;;;5.00;5.00;;;;;20.03;40.13;101967.19;4981864;28;45305;-36
2023/05/03 02:19:12;;;;;;;;;7.00;6.00;;;;;20.04;40.56;101970.69;4979387;28;45392;-38
2023/05/03 02:21:38;;;;;;;;;5.00;5.00;;;;;19.99;40.72;101970.88;4981680;28;45479;-40
2023/05/03 02:24:03;;;;;;;;;4.00;4.00;;;;;20.03;40.38;101982.13;4986009;28;46288;-39
2023/05/03 02:26:29;;;;;;;;;4.00;4.00;;;;;20.02;40.00;101980.41;4993413;28;45418;-38
2023/05/03 02:28:56;;;;;;;;;5.25;4.75;;;;;20.02;40.14;101978.63;4998835;28;45160;-41
2023/05/03 02:31:23;;;;;;;;;5.00;5.00;;;;;20.01;40.31;101979.53;4998604;28;44968;-41
2023/05/03 02:33:48;;;;;;;;;6.25;6.25;;;;;20.01;40.24;101987.44;4995513;28;45514;-42
2023/05/03 02:36:13;;;;;;;;;7.25;5.00;;;;;20.02;40.28;101983.03;4990422;28;45254;-40
2023/05/03 02:38:39;;;;;;;;;5.50;5.50;;;;;20.01;39.87;101979.53;4983655;28;45466;-40
2023/05/03 02:41:04;;;;;;;;;4.75;4.75;;;;;20.01;40.15;101973.44;4980680;28;45266;-39
2023/05/03 02:43:29;;;;;;;;;5.00;5.00;;;;;20.01;40.08;101974.28;4984045;28;47193;-41
2023/05/03 02:45:55;;;;;;;;;4.00;4.00;;;;;19.98;40.06;101968.25;4984956;28;52902;-41
2023/05/03 02:48:21;;;;;;;;;6.25;6.00;;;;;20.01;40.08;101976.06;4984773;28;45351;-41
2023/05/03 02:50:46;;;;;;;;;5.75;5.75;;;;;20.00;40.02;101982.22;4981805;28;45586;-46
2023/05/03 02:53:11;;;;;;;;;5.00;4.75;;;;;20.00;40.41;101985.75;4979149;28;47389;-38
2023/05/03 02:55:37;;;;;;;;;5.75;5.00;;;;;20.00;40.35;101977.84;4978568;28;45455;-41
2023/05/03 02:58:02;;;;;;;;;7.00;5.25;;;;;19.97;40.05;101977.94;4978776;28;45857;-41
2023/05/03 03:00:27;;;;;;;;;6.75;5.50;;;;;19.96;40.33;101968.31;4980110;28;46587;-40
2023/05/03 03:02:53;;;;;;;;;5.00;4.25;;;;;19.99;39.76;101977.88;4983979;28;45447;-38
2023/05/03 03:05:18;;;;;;;;;5.00;5.00;;;;;19.98;40.45;101971.78;4982920;28;45138;-41
2023/05/03 03:07:43;;;;;;;;;5.00;5.00;;;;;19.98;39.84;101963.88;4980546;28;45844;-42
2023/05/03 03:10:09;;;;;;;;;4.00;4.00;;;;;19.98;40.08;101966.50;4978663;28;45419;-37
2023/05/03 03:12:35;;;;;;;;;4.00;4.00;;;;;19.99;39.99;101962.97;4977690;28;46085;-39
2023/05/03 03:15:01;;;;;;;;;5.25;5.00;;;;;19.93;40.53;101955.28;4977792;28;45357;-39
2023/05/03 03:17:26;;;;;;;;;5.00;4.25;;;;;19.97;40.34;101958.66;4979713;28;45837;-40
2023/05/03 03:19:51;;;;;;;;;4.50;4.00;;;;;19.97;40.18;101954.25;4978160;28;45263;-41
2023/05/03 03:22:17;;;;;;;;;3.00;3.00;;;;;19.96;40.16;101947.28;4977913;28;48194;-41
2023/05/03 03:24:42;;;;;;;;;5.75;4.00;;;;;19.92;40.44;101940.41;4977523;28;47332;-40
2023/05/03 03:27:07;;;;;;;;;6.50;5.00;;;;;19.92;39.81;101935.13;4982890;28;45440;-42
2023/05/03 03:29:34;;;;;;;;;5.00;3.25;;;;;19.91;39.83;101929.03;4990511;28;51667;-39
2023/05/03 03:31:59;;;;;;;;;4.00;4.00;;;;;19.95;40.38;101940.28;4991091;28;46180;-37
2023/05/03 03:34:25;;;;;;;;;6.00;4.25;;;;;19.91;39.82;101934.28;4986261;28;44718;-38
2023/05/03 03:36:50;;;;;;;;;4.00;4.00;;;;;19.91;40.15;101930.78;4998714;28;44776;-40
2023/05/03 03:39:15;;;;;;;;;5.25;5.00;;;;;19.95;39.92;101935.03;4990760;28;44831;-43
2023/05/03 03:41:41;;;;;;;;;6.50;5.00;;;;;19.95;40.08;101929.78;4984261;28;45437;-40
2023/05/03 03:44:06;;;;;;;;;5.00;4.00;;;;;19.95;40.29;101923.66;4983198;28;45480;-38
2023/05/03 03:46:32;;;;;;;;;4.75;4.00;;;;;19.95;39.81;101923.66;4979004;28;45844;-41
2023/05/03 03:48:57;;;;;;;;;3.00;3.00;;;;;19.91;40.12;101925.53;4981861;28;45464;-37
2023/05/03 03:51:22;;;;;;;;;8.25;6.00;;;;;19.94;40.04;101933.31;4980934;28;45408;-42
2023/05/03 03:53:48;;;;;;;;;5.00;3.00;;;;;19.93;39.82;101927.19;4982818;28;45578;-40
2023/05/03 03:56:13;;;;;;;;;6.00;4.00;;;;;19.90;39.70;101922.03;4983264;28;62055;-37
2023/05/03 03:58:38;;;;;;;;;6.00;5.00;;;;;19.90;40.33;101921.16;4987408;28;45190;-42
2023/05/03 04:01:04;;;;;;;;;4.00;4.00;;;;;19.93;40.04;101926.31;4979630;28;64911;-40
2023/05/03 04:03:29;;;;;;;;;4.50;4.50;;;;;19.93;40.29;101927.19;4977620;28;45303;-39
2023/05/03 04:05:55;;;;;;;;;4.00;4.00;;;;;19.93;40.23;101926.31;4977805;28;45475;-41
2023/05/03 04:08:20;;;;;;;;;5.00;5.00;;;;;19.90;39.74;101921.16;4981824;28;45483;-43
2023/05/03 04:10:45;;;;;;;;;4.00;4.00;;;;;19.92;39.93;101919.34;4982722;28;46144;-38
2023/05/03 04:13:11;;;;;;;;;7.25;5.00;;;;;19.93;39.80;101921.94;4981506;28;45242;-40
2023/05/03 04:15:36;;;;;;;;;4.25;3.75;;;;;19.91;40.23;101923.75;4985765;28;45469;-40
2023/05/03 04:18:02;;;;;;;;;6.00;4.75;;;;;19.89;39.93;101922.09;4992757;28;47686;-42
2023/05/03 04:20:28;;;;;;;;;3.25;3.25;;;;;19.92;39.75;101935.13;4977308;28;46935;-37
2023/05/03 04:22:53;;;;;;;;;4.75;4.75;;;;;19.92;40.13;101936.00;4982114;28;45653;-37
2023/05/03 04:25:19;;;;;;;;;7.50;5.00;;;;;19.92;40.49;101935.13;4989005;28;45417;-39
2023/05/03 04:27:44;;;;;;;;;9.25;6.75;;;;;19.92;39.78;101924.59;4981274;28;45436;-39
2023/05/03 04:30:11;;;;;;;;;7.75;6.00;;;;;19.91;39.49;101925.53;4976965;28;45389;-38
2023/05/03 04:32:39;;;;;;;;;6.75;6.75;;;;;19.94;39.61;101935.94;4976299;28;45815;-39
2023/05/03 04:35:11;;;;;;;;;10.25;6.50;;;;;19.93;40.07;101926.31;4976275;28;45334;-37
2023/05/03 04:37:37;;;;;;;;;7.00;6.50;;;;;19.95;39.78;101929.78;4976679;28;45329;-38
2023/05/03 04:40:08;;;;;;;;;8.25;7.00;;;;;19.95;39.46;101927.13;4978657;28;45337;-38
2023/05/03 04:42:34;;;;;;;;;8.75;6.00;;;;;19.97;39.58;101927.06;4983713;28;45321;-35
2023/05/03 04:45:01;;;;;;;;;7.25;6.00;;;;;19.98;39.39;101928.78;4983944;28;45867;-37
2023/05/03 04:47:27;;;;;;;;;6.25;6.25;;;;;19.98;39.80;101927.03;4980334;28;45526;-37
2023/05/03 04:49:52;;;;;;;;;9.75;7.25;;;;;19.98;39.78;101937.56;4980776;28;45468;-40
2023/05/03 04:52:18;;;;;;;;;8.00;5.25;;;;;19.99;39.35;101931.41;4982216;28;45299;-37
2023/05/03 04:54:44;;;;;;;;;7.50;6.75;;;;;19.96;39.97;101930.63;4976793;28;45339;-37
2023/05/03 04:57:09;;;;;;;;;8.00;7.00;;;;;20.00;39.51;101938.38;4976665;28;45604;-38
2023/05/03 04:59:35;;;;;;;;;9.50;7.50;;;;;19.98;39.64;101934.06;4976324;28;46164;-39
2023/05/03 05:02:00;;;;;;;;;7.50;6.00;;;;;20.00;39.82;101933.13;4976007;28;45297;-38
2023/05/03 05:04:26;;;;;;;;;9.25;9.00;;;;;19.98;40.50;101924.41;4974370;28;45693;-38
2023/05/03 05:06:53;;;;;;;;;7.00;7.00;;;;;20.01;40.28;101940.06;4976630;28;45428;-39
2023/05/03 05:09:27;;;;;;;;;7.25;7.00;;;;;20.01;40.70;101929.53;4976223;28;46098;-38
2023/05/03 05:11:53;;;;;;;;;6.00;5.00;;;;;20.00;40.58;101935.75;4976399;28;45276;-40
2023/05/03 05:14:18;;;;;;;;;11.50;7.25;;;;;20.02;40.96;101941.78;4978751;28;45548;-40
2023/05/03 05:16:44;;;;;;;;;13.00;8.50;;;;;20.03;41.41;101935.59;4984949;28;45353;-38
2023/05/03 05:19:09;;;;;;;;;11.75;9.00;;;;;20.04;41.76;101945.22;4988027;28;45414;-38
2023/05/03 05:21:35;;;;;;;;;8.00;8.00;;;;;20.05;42.09;101941.69;4981533;28;45368;-36
2023/05/03 05:24:00;;;;;;;;;16.50;11.50;;;;;20.06;42.42;101938.13;4978227;28;45346;-38
2023/05/03 05:26:26;;;;;;;;;8.50;8.50;;;;;20.06;42.03;101938.13;4983091;28;45425;-37
2023/05/03 05:28:52;;;;;;;;;10.75;10.75;;;;;20.06;42.22;101932.03;4982346;28;47359;-37
2023/05/03 05:31:17;;;;;;;;;16.00;12.00;;;;;20.06;42.61;101921.50;4984576;28;45453;-38
2023/05/03 05:33:43;;;;;;;;;12.75;10.75;;;;;20.06;42.11;101927.63;4992875;28;45336;-40
2023/05/03 05:36:08;;;;;;;;;13.75;11.00;;;;;20.08;42.06;101925.78;4996529;28;45447;-47
2023/05/03 05:38:33;;;;;;;;;12.25;11.00;;;;;20.07;42.04;101917.94;4987844;28;45364;-45
2023/05/03 05:40:59;;;;;;;;;9.50;9.50;;;;;20.07;42.50;101925.81;4992430;28;44845;-48
2023/05/03 05:43:24;;;;;;;;;10.00;9.00;;;;;20.03;42.08;101917.19;4998861;28;54985;-43
2023/05/03 05:45:49;;;;;;;;;10.00;7.25;;;;;20.08;42.27;101923.16;4987852;28;44814;-40
2023/05/03 05:48:15;;;;;;;;;9.25;9.25;;;;;20.04;42.15;101918.91;4993664;28;47021;-42
2023/05/03 05:50:40;;;;;;;;;9.00;9.00;;;;;20.09;41.91;101929.28;4995185;28;45270;-40
2023/05/03 05:53:07;;;;;;;;;9.25;8.75;;;;;20.09;41.82;101942.44;4980254;28;45326;-41
2023/05/03 05:55:33;;;;;;;;;9.25;7.75;;;;;20.11;41.84;101939.75;4979557;28;45579;-46
2023/05/03 05:57:58;;;;;;;;;11.75;7.75;;;;;20.11;41.34;101934.50;4978213;28;47417;-40
2023/05/03 06:00:24;;;;;;;;;10.00;8.00;;;;;20.10;41.82;101938.03;4979272;28;45421;-40
2023/05/03 06:02:49;;;;;;;;;12.00;12.00;;;;;20.10;41.25;101938.03;4979528;28;45482;-43
2023/05/03 06:05:15;;;;;;;;;10.75;9.25;;;;;20.10;41.64;101940.66;4979769;28;45454;-44
2023/05/03 06:07:40;;;;;;;;;9.25;9.00;;;;;20.10;41.58;101943.31;4982446;28;46063;-43
2023/05/03 06:10:06;;;;;;;;;10.67;9.00;;;;;20.08;41.33;101949.47;4987130;28;67492;-42
2023/05/03 06:12:32;;;;;;;;;9.25;8.75;;;;;20.05;41.26;101952.22;4990817;28;44685;-40
2023/05/03 06:14:57;;;;;;;;;10.00;7.00;;;;;20.04;40.95;101947.84;4983792;28;45429;-43
2023/05/03 06:17:24;;;;;;;;;10.25;9.25;;;;;20.09;41.02;101955.59;4982709;28;46089;-42
2023/05/03 06:19:49;;;;;;;;;10.50;7.25;;;;;20.09;40.87;101947.69;4980933;28;45291;-41
2023/05/03 06:22:15;;;;;;;;;9.25;8.00;;;;;20.07;40.80;101949.50;4983061;28;45389;-41
2023/05/03 06:24:40;;;;;;;;;10.00;8.00;;;;;20.08;41.01;101946.84;4981905;28;45436;-42
2023/05/03 06:27:06;;;;;;;;;7.50;7.50;;;;;20.09;41.27;101942.44;4986093;28;45461;-41
2023/05/03 06:29:31;;;;;;;;;7.00;6.50;;;;;20.08;40.67;101941.59;4986632;28;45397;-42
2023/05/03 06:31:56;;;;;;;;;7.25;7.00;;;;;20.09;40.90;101939.78;4986029;28;45161;-41
2023/05/03 06:34:21;;;;;;;;;7.00;6.50;;;;;20.10;40.54;101932.78;4983959;28;45523;-40
2023/05/03 06:36:48;;;;;;;;;9.00;7.00;;;;;20.10;40.51;101922.25;4994567;28;46948;-44
2023/05/03 06:39:13;;;;;;;;;7.00;7.00;;;;;20.10;40.79;101932.78;4993116;28;45499;-42
2023/05/03 06:41:38;;;;;;;;;7.00;7.00;;;;;20.10;40.39;101930.16;4996406;28;45339;-42
2023/05/03 06:44:05;;;;;;;;;13.00;7.33;;;;;20.11;40.57;101929.22;4997024;28;45405;-44
2023/05/03 06:46:31;;;;;;;;;7.25;6.75;;;;;20.07;40.85;101918.81;4998273;28;46283;-47
2023/05/03 06:48:56;;;;;;;;;8.75;8.25;;;;;20.12;40.42;101933.59;5002118;28;47936;-46
2023/05/03 06:51:26;;;;;;;;;6.25;6.00;;;;;20.12;40.24;101936.22;5000322;28;45522;-41
2023/05/03 06:53:53;;;;;;;;;6.00;6.00;;;;;20.14;40.77;101934.38;4998424;28;45337;-42
2023/05/03 06:56:18;;;;;;;;;7.50;7.50;;;;;20.16;40.63;101937.81;4998315;28;46115;-43
2023/05/03 06:58:43;;;;;;;;;5.33;5.33;;;;;20.15;40.40;101931.69;4997117;28;66903;-46
2023/05/03 07:01:08;;;;;;;;;7.00;6.67;;;;;20.15;40.15;101925.56;4996080;28;62124;-41
2023/05/03 07:03:34;;;;;;;;;7.00;6.00;;;;;20.18;40.06;101930.72;4999200;28;45431;-50
2023/05/03 07:06:00;;;;;;;;;9.25;6.50;;;;;20.17;40.20;101918.47;5005629;28;47072;-43
2023/05/03 07:08:25;;;;;;;;;4.00;4.00;;;;;20.18;40.23;101920.19;4999955;28;45374;-38
2023/05/03 07:10:50;;;;;;;;;8.00;8.00;;;;;20.17;39.80;101919.34;4999853;28;45332;-38
2023/05/03 07:13:15;;;;;;;;;9.75;6.25;;;;;20.17;40.22;101913.19;4999174;28;45528;-37
2023/05/03 07:15:41;;;;;;;;;6.00;5.67;;;;;20.15;40.22;101917.66;4998428;28;61290;-41
2023/05/03 07:18:06;;;;;;;;;6.00;6.00;;;;;20.16;39.83;101920.25;4998447;28;45361;-45
2023/05/03 07:20:32;;;;;;;;;6.00;6.00;;;;;20.17;40.10;101913.19;4998259;28;45324;-50
2023/05/03 07:22:57;;;;;;;;;8.00;7.00;;;;;20.16;40.35;101908.84;5002507;28;48109;-39
2023/05/03 07:25:22;;;;;;;;;7.75;6.00;;;;;20.17;39.95;101910.56;5003045;28;46852;-37
2023/05/03 07:27:48;;;;;;;;;7.00;7.00;;;;;20.18;40.21;101910.50;5000805;28;45243;-39
2023/05/03 07:30:13;;;;;;;;;8.00;6.50;;;;;20.18;39.90;101912.28;5002020;28;45350;-42
2023/05/03 07:32:39;;;;;;;;;6.50;6.00;;;;;20.18;40.02;101905.25;4980285;28;45495;-50
2023/05/03 07:35:06;;;;;;;;;4.50;4.50;;;;;20.20;40.36;101902.56;4998230;28;47266;-49
2023/05/03 07:37:31;;;;;;;;;7.00;6.00;;;;;20.18;39.98;101893.88;5010370;28;45241;-44
2023/05/03 07:39:56;;;;;;;;;5.00;5.00;;;;;20.19;40.47;101895.59;4996915;28;44766;-39
2023/05/03 07:42:22;;;;;;;;;6.33;6.33;;;;;20.21;40.44;101893.75;4993371;28;52185;-45
2023/05/03 07:44:47;;;;;;;;;7.00;5.75;;;;;20.21;40.31;101888.50;4991402;28;47820;-46
2023/05/03 07:47:12;;;;;;;;;7.75;7.00;;;;;20.21;40.31;101891.97;4981859;28;44673;-41
2023/05/03 07:49:38;;;;;;;;;9.25;6.25;;;;;20.23;40.27;101886.63;4990461;28;45262;-40
2023/05/03 07:52:03;;;;;;;;;6.50;6.00;;;;;20.29;39.67;101882.91;4994032;28;45557;-42
2023/05/03 07:54:28;;;;;;;;;8.00;5.50;;;;;20.30;39.77;101872.34;4993261;28;46949;-45
2023/05/03 07:56:54;;;;;;;;;7.50;5.25;;;;;20.32;39.88;101873.16;4991498;28;63007;-40
2023/05/03 07:59:19;;;;;;;;;6.25;6.25;;;;;20.31;39.61;101863.53;4988418;28;61609;-41
2023/05/03 08:01:44;;;;;;;;;8.75;8.00;;;;;20.30;39.56;101874.09;4986844;28;45412;-38
2023/05/03 08:04:10;;;;;;;;;7.00;6.00;;;;;20.24;39.35;101862.91;4983620;28;64607;-39
2023/05/03 08:06:37;;;;;;;;;8.50;6.00;;;;;20.21;39.16;101859.53;4978480;28;45333;-37
2023/05/03 08:09:03;;;;;;;;;8.00;6.00;;;;;20.17;39.02;101855.28;4977489;28;45398;-38
2023/05/03 08:11:29;;;;;;;;;6.00;6.00;;;;;20.16;39.22;101857.09;4977963;28;45546;-41
2023/05/03 08:13:55;;;;;;;;;11.00;7.75;;;;;20.14;39.41;101855.41;4978125;28;46194;-39
2023/05/03 08:16:20;;;;;;;;;14.25;12.75;;;;;20.15;38.56;101851.84;4976103;28;45258;-38
2023/05/03 08:18:46;;;;;;;;;13.00;9.00;;;;;20.13;38.67;101854.56;4977576;28;45450;-37
2023/05/03 08:21:12;;;;;;;;;13.50;9.75;;;;;20.12;38.10;101852.84;4977608;28;45555;-38
2023/05/03 08:23:38;;;;;;;;;13.75;10.25;;;;;20.13;38.27;101848.41;4977481;28;47220;-38
2023/05/03 08:26:06;;;;;;;;;14.50;12.75;;;;;20.10;37.52;101843.28;4980422;28;45438;-38
2023/05/03 08:28:31;;;;;;;;;12.50;11.25;;;;;20.08;37.42;101844.22;4983985;28;45264;-38
2023/05/03 08:30:57;;;;;;;;;10.75;8.25;;;;;20.08;37.33;101840.69;4977839;28;45475;-41
2023/05/03 08:33:22;;;;;;;;;11.50;9.50;;;;;20.05;37.53;101848.72;4980738;28;46349;-40
2023/05/03 10:43:34;;;;;;;;;7.25;7.25;;;;;20.33;36.33;101755.53;4975005;28;45451;-39
2023/05/03 10:46:10;;;;;;;;;9.75;7.75;;;;;20.32;36.79;101759.94;4977701;28;45476;-39
2023/05/03 10:48:36;;;;;;;;;7.75;7.75;;;;;20.30;36.92;101753.88;4978055;28;45676;-37
2023/05/03 10:51:27;;;;;;;;;7.50;7.00;;;;;20.30;36.63;101753.88;4978257;28;47090;-42
2023/05/03 10:53:53;;;;;;;;;8.00;8.00;;;;;20.30;36.79;101748.63;4977935;28;45821;-41
2023/05/03 10:56:18;;;;;;;;;11.75;9.00;;;;;20.32;36.67;101732.75;4978204;28;45231;-42
2023/05/03 10:58:47;;;;;;;;;12.33;8.67;;;;;20.31;37.24;101733.66;4977824;28;56483;-43
2023/05/03 11:01:17;;;;;;;;;19.50;15.25;;;;;20.32;37.54;101733.63;4979301;28;46971;-37
2023/05/03 11:03:43;;;;;;;;;29.25;23.75;;;;;20.33;37.21;101730.06;4982623;28;45361;-37
2023/05/03 11:06:08;;;;;;;;;43.25;34.25;;;;;20.33;37.48;101724.81;4991465;28;45158;-45
2023/05/03 11:08:37;;;;;;;;;47.25;38.25;;;;;20.35;37.45;101727.38;4991968;28;45315;-38
2023/05/03 11:11:08;;;;;;;;;53.00;41.50;;;;;20.35;38.21;101728.22;4991842;28;45672;-45
2023/05/03 11:13:35;;;;;;;;;64.75;47.75;;;;;20.36;37.87;101713.28;4997290;28;45265;-38
2023/05/03 11:16:01;;;;;;;;;55.00;41.25;;;;;20.36;37.75;101703.59;4995203;28;44766;-41
2023/05/03 11:18:27;;;;;;;;;86.50;71.00;;;;;20.37;38.42;101715.84;4995682;28;45390;-42
2023/05/03 11:20:52;;;;;;;;;121.25;105.25;;;;;20.38;38.37;101709.66;4982467;28;46559;-38
2023/05/03 11:23:18;;;;;;;;;102.75;84.50;;;;;20.39;38.17;101708.75;4979864;28;45488;-42
2023/05/03 11:25:43;;;;;;;;;75.50;53.75;;;;;20.39;37.56;101707.91;4977358;28;45743;-43
2023/05/03 11:28:09;;;;;;;;;53.75;41.00;;;;;20.38;37.64;101701.75;4979301;28;45395;-39
2023/05/03 11:30:36;;;;;;;;;63.50;48.50;;;;;20.39;37.44;101692.94;4982417;28;46283;-37
2023/05/03 11:33:02;;;;;;;;;64.75;50.00;;;;;20.37;37.56;101694.78;4989953;28;45390;-42
2023/05/03 11:35:29;;;;;;;;;58.00;45.50;;;;;20.39;37.48;101686.84;5001435;28;44816;-44
2023/05/03 11:37:55;;;;;;;;;60.50;45.50;;;;;20.38;37.56;101678.06;4984344;28;45297;-38
2023/05/03 11:40:21;;;;;;;;;49.75;40.00;;;;;20.41;37.92;101684.13;4991325;28;45352;-37
2023/05/03 11:43:08;;;;;;;;;32.25;27.50;;;;;20.41;37.77;101677.06;4989460;28;45268;-36
2023/05/03 11:45:43;;;;;;;;;48.00;36.50;;;;;20.42;37.35;101670.06;4985876;28;45397;-39
2023/05/03 11:48:10;;;;;;;;;45.25;33.75;;;;;20.41;37.57;101663.06;4984999;28;45645;-37
2023/05/03 11:50:55;;;;;;;;;37.50;26.25;;;;;20.42;37.82;101649.00;4986551;28;46636;-39
2023/05/03 11:53:24;;;;;;;;;24.00;21.75;;;;;20.46;37.27;101653.19;4984873;28;45248;-40
2023/05/03 11:55:52;;;;;;;;;21.25;18.00;;;;;20.47;37.30;101652.28;4984863;28;45462;-38
2023/05/03 11:58:21;;;;;;;;;17.75;16.25;;;;;20.48;37.72;101648.72;4984820;28;45610;-38
2023/05/03 12:00:48;;;;;;;;;19.00;13.25;;;;;20.49;37.46;101647.78;4991828;28;45651;-39
2023/05/03 12:03:22;;;;;;;;;14.25;13.50;;;;;20.50;37.52;101634.59;4992350;28;45078;-43
2023/05/03 12:05:48;;;;;;;;;14.00;13.25;;;;;20.50;37.16;101631.94;4980258;28;45270;-41
2023/05/03 12:08:18;;;;;;;;;14.75;14.75;;;;;20.53;37.09;101638.84;4977556;28;45389;-39
2023/05/03 12:10:44;;;;;;;;;11.75;11.00;;;;;20.53;36.94;101623.91;4977370;28;46198;-39
2023/05/03 12:13:10;;;;;;;;;12.75;11.75;;;;;20.55;37.55;101624.69;4979264;28;45352;-45
2023/05/03 12:15:37;;;;;;;;;11.00;10.25;;;;;20.58;36.94;101623.69;4983417;28;45452;-43
2023/05/03 12:18:06;;;;;;;;;11.25;10.00;;;;;20.57;37.13;101621.97;4985330;28;45485;-40
2023/05/03 12:20:32;;;;;;;;;13.00;10.00;;;;;20.60;37.40;101615.75;4977890;28;45564;-41
2023/05/03 12:23:02;;;;;;;;;10.75;8.75;;;;;20.62;37.32;101619.16;4977121;28;45406;-37
2023/05/03 12:25:28;;;;;;;;;11.50;9.25;;;;;20.60;37.17;101611.31;4976976;28;45234;-42
2023/05/03 12:27:56;;;;;;;;;9.50;8.00;;;;;20.63;37.29;101605.06;4977391;28;45530;-39
2023/05/03 12:30:22;;;;;;;;;10.25;9.00;;;;;20.64;37.34;101605.00;4976747;28;47337;-43
2023/05/03 12:32:47;;;;;;;;;10.50;9.50;;;;;20.65;36.99;101603.22;4976579;28;45337;-39
2023/05/03 12:35:13;;;;;;;;;7.25;6.50;;;;;20.67;37.35;101598.75;4981896;28;45451;-44
2023/05/03 12:37:38;;;;;;;;;9.75;7.50;;;;;20.67;37.10;101588.22;4983592;28;45361;-38
2023/05/03 12:40:04;;;;;;;;;7.25;7.25;;;;;20.68;37.25;101589.94;4980513;28;45981;-39
2023/05/03 12:42:30;;;;;;;;;7.00;7.00;;;;;20.67;37.31;101583.78;4980504;28;45243;-39
2023/05/03 12:44:56;;;;;;;;;7.75;7.50;;;;;20.67;37.01;101578.50;4980948;28;45408;-38
2023/05/03 12:47:22;;;;;;;;;8.25;7.50;;;;;20.70;36.81;101581.03;4983048;28;45474;-40
2023/05/03 12:49:47;;;;;;;;;7.25;7.00;;;;;20.70;37.22;101586.28;4985596;28;46174;-42
2023/05/03 12:52:12;;;;;;;;;8.00;7.25;;;;;20.71;37.29;101576.63;4990424;28;45209;-38
2023/05/03 12:54:38;;;;;;;;;10.50;7.50;;;;;20.70;37.04;101567.84;4987557;28;45841;-38
2023/05/03 12:57:03;;;;;;;;;9.00;8.75;;;;;20.68;37.46;101572.31;4992661;28;45324;-37
2023/05/03 12:59:29;;;;;;;;;11.50;7.00;;;;;20.71;37.33;101579.25;4997144;28;46429;-45
2023/05/03 13:01:55;;;;;;;;;12.25;8.25;;;;;20.69;37.15;101571.41;4981307;28;45240;-46
2023/05/03 13:04:20;;;;;;;;;9.25;6.50;;;;;20.68;37.18;101561.78;4980828;28;45412;-39
2023/05/03 13:06:48;;;;;;;;;10.00;9.00;;;;;20.70;36.92;101559.94;4981267;28;45426;-43
2023/05/03 13:09:15;;;;;;;;;11.50;10.00;;;;;20.68;37.57;101556.53;4982433;28;45495;-45
2023/05/03 13:11:41;;;;;;;;;7.00;6.00;;;;;20.69;37.01;101552.97;4980815;28;45340;-44
2023/05/03 13:14:06;;;;;;;;;8.00;8.00;;;;;20.70;37.57;101557.31;4980027;28;45325;-48
2023/05/03 13:16:33;;;;;;;;;9.50;8.25;;;;;20.66;37.44;101547.84;4979787;28;45529;-44
2023/05/03 13:18:58;;;;;;;;;8.25;8.25;;;;;20.68;37.11;101540.72;4978462;28;47583;-42
2023/05/03 13:21:24;;;;;;;;;8.33;8.33;;;;;20.68;37.14;101535.44;4978729;28;67021;-51
2023/05/03 13:23:49;;;;;;;;;10.00;9.25;;;;;20.68;37.33;101540.72;4979777;28;54507;-44
2023/05/03 13:26:15;;;;;;;;;7.75;6.00;;;;;20.65;37.00;101532.97;4980664;28;45622;-50